Los Angeles, California
Traffic Map
Current Weather Conditions
Los Angeles, California
Clear
Clear
21°
Feels Like: 21°
Wind Chill: 21° Ceiling: Unl
Heat Index: 21° Visibility: 10mi
Dew Point: Wind: 0mph
Humidity: 42% Direction: ° ()
Pressure: 30.04in Gusts: 0mph
Raw Report DataKCQT 220247Z AUTO 00000KT 10SM CLR 21/08 A3004 RMK AO2 SLP171 T02110078 51007 $
Traffic Incident Summary
Active as of:
Severity:
Category:
InformationThere was an issue retrieving the traffic information for this location. Please try a different location or try again shortly.
Advertisements